You are not logged in, Click here to log in
大阪国際空港ITM / RJOO 日本兵庫縣伊丹市
ICAO: RJOO Country: 日本兵庫縣伊丹市
Latitude: 34.7896 Longitude: 135.438
Total Arrivals: 19 Total Departures: 15
Latest Arrival: EH1672 (RJFF-RJOO)Lun. Wang Latest Departure: EH783B (RJOO-RJFU)Lun. Wang
Scenery:
METAR : RJOO 080200Z VRB02KT 9999 FEW025 SCT040 11/04 Q1024 RMK 1CU025 3CU040 A3026

大阪国際空港ITM